Westerville, Ohio
Current Conditions -  °F | °C
As of 12:53 AM on Friday 31 Oct 2014 (Local Time) from KOSU Reporting Station
Overcast Overcast  
Wind Chill: 41°   Ceiling: 4600
Heat Index: 41°   Visibility: 10mi
Dew Point: 37°   Wind: 3mph
Humidity: 86%   Direction: 230°SW
Pressure: 30.04"   Gusts: NA
Location:  40.13°N, 82.93°W
Report Text: KOSU 310453Z AUTO 23003KT 10SM OVC046 05/03 A3004 RMK AO2 SLP175 T00500028 401000039
Loading
Personal Weather Stations






























Interactive Weather Map
Tropical Storm Tracking
New forecast layout! Learn more

10-Day Weather Forecast

Advertisements
Track Severe Weather on mobile